Time;durP1;ratioP1;P1;durP2;ratioP2;P2;SDS_P1;SDS_P2;PMS_P1;PMS_P2;Temp;Humidity;BMP_temperature;BMP_pressure;BME280_temperature;BME280_humidity;BME280_pressure;Samples;Min_cycle;Max_cycle;Signal;HPM_P1;HPM_P2
2023/03/05 00:02:00;;;;;;;3.75;0.68;;;;;;;;;;5037231;28;20045;-83
2023/03/05 00:04:28;;;;;;;3.63;0.90;;;;;;;;;;5036246;28;20049;-83
2023/03/05 00:06:56;;;;;;;6.28;0.88;;;;;;;;;;5039026;28;20103;-82
2023/03/05 00:09:48;;;;;;;6.32;1.08;;;;;;;;;;5054521;28;20464;-83
2023/03/05 00:12:16;;;;;;;5.63;1.40;;;;;;;;;;5036698;28;20044;-83
2023/03/05 00:14:44;;;;;;;6.43;1.02;;;;;;;;;;5022725;28;20049;-83
2023/03/05 00:17:12;;;;;;;3.10;0.80;;;;;;;;;;5033645;28;20857;-83
2023/03/05 00:19:40;;;;;;;6.25;0.98;;;;;;;;;;5038635;28;20076;-83
2023/03/05 00:22:08;;;;;;;7.60;1.08;;;;;;;;;;5037918;28;20057;-83
2023/03/05 00:24:36;;;;;;;6.78;0.90;;;;;;;;;;5049775;28;20040;-83
2023/03/05 00:27:08;;;;;;;4.85;1.02;;;;;;;;;;5037666;28;20067;-83
2023/03/05 00:29:36;;;;;;;4.30;0.65;;;;;;;;;;5037532;28;20042;-83
2023/03/05 00:32:04;;;;;;;6.05;1.27;;;;;;;;;;5021196;28;20044;-83
2023/03/05 00:34:56;;;;;;;5.03;0.90;;;;;;;;;;5034388;28;20040;-83
2023/03/05 00:37:28;;;;;;;4.30;0.65;;;;;;;;;;5055373;28;20049;-83
2023/03/05 00:39:56;;;;;;;7.75;0.95;;;;;;;;;;5053096;28;20415;-83
2023/03/05 00:42:24;;;;;;;7.32;1.27;;;;;;;;;;5021080;28;20072;-83
2023/03/05 00:44:52;;;;;;;3.25;0.77;;;;;;;;;;5021846;28;20041;-83
2023/03/05 00:47:20;;;;;;;5.50;0.55;;;;;;;;;;5035554;28;20527;-83
2023/03/05 00:49:48;;;;;;;4.78;0.77;;;;;;;;;;5038163;28;20049;-83
2023/03/05 00:52:17;;;;;;;4.38;0.68;;;;;;;;;;5037519;28;20053;-83
2023/03/05 00:54:44;;;;;;;4.00;0.73;;;;;;;;;;5019700;28;20124;-83
2023/03/05 00:57:22;;;;;;;4.55;0.63;;;;;;;;;;5036195;28;20065;-83
2023/03/05 00:59:54;;;;;;;7.40;0.90;;;;;;;;;;5037237;28;20123;-83
2023/03/05 01:02:22;;;;;;;4.78;0.70;;;;;;;;;;5037629;28;20060;-83
2023/03/05 01:04:50;;;;;;;2.70;1.08;;;;;;;;;;5051720;28;20104;-83
2023/03/05 01:07:18;;;;;;;4.40;1.02;;;;;;;;;;5020009;28;20045;-83
2023/03/05 01:09:46;;;;;;;5.00;0.95;;;;;;;;;;5021994;28;20187;-83
2023/03/05 01:12:46;;;;;;;4.97;0.80;;;;;;;;;;5048431;28;20519;-83
2023/03/05 01:15:14;;;;;;;3.88;1.00;;;;;;;;;;5021158;28;20076;-83
2023/03/05 01:18:10;;;;;;;2.05;0.70;;;;;;;;;;5037490;28;20562;-83
2023/03/05 01:20:42;;;;;;;7.85;1.23;;;;;;;;;;5038312;28;20072;-83
2023/03/05 01:24:02;;;;;;;5.50;1.20;;;;;;;;;;5039937;28;20123;-83
2023/03/05 01:26:34;;;;;;;9.00;1.08;;;;;;;;;;5038019;28;20109;-83
2023/03/05 01:29:02;;;;;;;3.05;1.10;;;;;;;;;;5035939;28;20534;-83
2023/03/05 01:31:36;;;;;;;7.72;1.55;;;;;;;;;;5020985;28;20037;-83
2023/03/05 01:34:28;;;;;;;4.53;0.75;;;;;;;;;;5036046;28;20224;-83
2023/03/05 01:36:56;;;;;;;4.03;0.80;;;;;;;;;;5035731;28;20041;-83
2023/03/05 01:39:24;;;;;;;6.05;0.90;;;;;;;;;;5035998;28;20120;-83
2023/03/05 01:41:52;;;;;;;7.72;0.90;;;;;;;;;;5053572;28;20033;-83
2023/03/05 01:44:26;;;;;;;4.95;1.13;;;;;;;;;;5003291;28;20096;-83
2023/03/05 01:46:59;;;;;;;8.73;1.63;;;;;;;;;;5037518;28;20041;-83
2023/03/05 01:49:34;;;;;;;6.53;1.42;;;;;;;;;;5037769;28;20491;-83
2023/03/05 01:52:18;;;;;;;4.55;1.00;;;;;;;;;;5037916;28;20039;-83
2023/03/05 01:54:52;;;;;;;8.10;1.40;;;;;;;;;;5039612;28;20033;-83
2023/03/05 01:57:26;;;;;;;4.15;1.25;;;;;;;;;;5025420;28;20056;-83
2023/03/05 01:59:59;;;;;;;5.30;1.20;;;;;;;;;;5042223;28;20044;-83
2023/03/05 02:02:28;;;;;;;4.18;1.13;;;;;;;;;;5040535;28;20041;-83
2023/03/05 02:05:02;;;;;;;3.67;1.50;;;;;;;;;;5038820;28;20120;-83
2023/03/05 02:07:38;;;;;;;4.13;1.17;;;;;;;;;;5039485;28;20037;-83
2023/03/05 02:10:17;;;;;;;5.43;1.30;;;;;;;;;;5057568;28;20052;-83
2023/03/05 02:12:46;;;;;;;3.67;1.23;;;;;;;;;;5023313;28;20491;-83
2023/03/05 02:15:21;;;;;;;4.95;1.42;;;;;;;;;;5057572;28;20125;-83
2023/03/05 02:17:50;;;;;;;7.35;1.27;;;;;;;;;;5020986;28;20064;-83
2023/03/05 02:20:24;;;;;;;2.97;1.17;;;;;;;;;;5024730;28;20045;-83
2023/03/05 02:22:52;;;;;;;4.72;1.45;;;;;;;;;;5023466;28;20037;-83
2023/03/05 02:25:23;;;;;;;5.70;1.58;;;;;;;;;;5041353;28;20044;-83
2023/03/05 02:28:21;;;;;;;3.33;1.45;;;;;;;;;;5054521;28;20037;-83
2023/03/05 02:30:49;;;;;;;5.82;1.30;;;;;;;;;;5040853;28;20048;-83
2023/03/05 02:33:18;;;;;;;5.07;1.20;;;;;;;;;;5039648;28;21444;-83
2023/03/05 02:35:46;;;;;;;6.10;1.10;;;;;;;;;;5023084;28;20102;-83
2023/03/05 02:38:16;;;;;;;7.80;1.30;;;;;;;;;;5015088;28;20473;-83
2023/03/05 02:40:48;;;;;;;5.45;1.40;;;;;;;;;;5043444;28;20042;-83
2023/03/05 02:43:16;;;;;;;4.50;1.50;;;;;;;;;;5039942;28;20123;-83
2023/03/05 02:45:44;;;;;;;4.03;1.58;;;;;;;;;;5036887;28;20128;-83
2023/03/05 02:48:12;;;;;;;8.70;1.40;;;;;;;;;;5052840;28;20049;-83
2023/03/05 02:50:47;;;;;;;4.20;1.70;;;;;;;;;;5037216;28;20043;-83
2023/03/05 02:53:45;;;;;;;6.93;1.30;;;;;;;;;;5041146;28;20252;-82
2023/03/05 02:56:17;;;;;;;3.63;1.55;;;;;;;;;;5037102;28;20053;-83
2023/03/05 02:59:08;;;;;;;4.68;1.45;;;;;;;;;;5043929;28;20060;-83
2023/03/05 03:01:36;;;;;;;4.43;1.10;;;;;;;;;;5022697;28;20041;-82
2023/03/05 03:04:08;;;;;;;2.13;0.95;;;;;;;;;;5053044;28;20034;-83
2023/03/05 03:06:36;;;;;;;2.03;0.80;;;;;;;;;;5055365;28;20049;-83
2023/03/05 03:09:28;;;;;;;2.88;1.10;;;;;;;;;;5023145;28;20044;-83
2023/03/05 03:12:01;;;;;;;1.52;0.75;;;;;;;;;;5038603;28;20121;-83
2023/03/05 03:14:37;;;;;;;2.80;1.48;;;;;;;;;;5038970;28;20547;-83
2023/03/05 03:17:13;;;;;;;3.03;0.85;;;;;;;;;;5024362;28;20618;-83
2023/03/05 03:19:41;;;;;;;2.88;1.20;;;;;;;;;;5038834;28;20045;-83
2023/03/05 03:22:10;;;;;;;9.35;1.30;;;;;;;;;;5040055;28;20424;-83
2023/03/05 03:24:40;;;;;;;1.73;0.70;;;;;;;;;;5053113;28;20090;-83
2023/03/05 03:27:09;;;;;;;4.30;1.10;;;;;;;;;;5041546;28;20069;-83
2023/03/05 03:29:36;;;;;;;3.25;1.08;;;;;;;;;;5036699;28;20503;-83
2023/03/05 03:32:07;;;;;;;6.63;1.35;;;;;;;;;;5041091;28;20132;-83
2023/03/05 03:34:34;;;;;;;3.42;1.20;;;;;;;;;;5037312;28;20045;-83
2023/03/05 03:37:27;;;;;;;5.70;1.35;;;;;;;;;;5009233;28;20033;-83
2023/03/05 03:40:18;;;;;;;3.55;1.00;;;;;;;;;;5041312;28;20026;-83
2023/03/05 03:42:51;;;;;;;5.43;1.17;;;;;;;;;;5039847;28;20048;-83
2023/03/05 03:45:21;;;;;;;5.07;1.05;;;;;;;;;;5036762;28;20029;-83
2023/03/05 03:48:14;;;;;;;3.65;1.20;;;;;;;;;;5039711;28;20032;-83
2023/03/05 03:51:06;;;;;;;2.80;1.00;;;;;;;;;;5039329;28;20049;-83
2023/03/05 03:53:34;;;;;;;3.63;1.25;;;;;;;;;;5054107;28;20033;-83
2023/03/05 03:56:02;;;;;;;6.03;1.35;;;;;;;;;;5019909;28;20041;-82
2023/03/05 03:58:31;;;;;;;5.75;1.40;;;;;;;;;;5035769;28;20088;-83
2023/03/05 04:00:58;;;;;;;7.03;1.33;;;;;;;;;;5022067;28;20127;-83
2023/03/05 04:03:26;;;;;;;3.88;1.05;;;;;;;;;;5031634;28;20033;-83
2023/03/05 04:05:54;;;;;;;3.17;1.30;;;;;;;;;;5024836;28;20566;-83
2023/03/05 04:08:22;;;;;;;3.47;1.27;;;;;;;;;;5020806;28;20075;-83
2023/03/05 04:10:50;;;;;;;4.93;1.25;;;;;;;;;;5020126;28;20136;-83
2023/03/05 04:13:18;;;;;;;4.28;1.23;;;;;;;;;;5040171;28;20033;-83
2023/03/05 04:15:46;;;;;;;2.63;1.17;;;;;;;;;;5036059;28;20033;-82
2023/03/05 04:18:14;;;;;;;8.52;1.52;;;;;;;;;;5052417;28;20045;-83
2023/03/05 04:20:42;;;;;;;3.58;1.52;;;;;;;;;;5038354;28;20040;-83
2023/03/05 04:23:10;;;;;;;6.65;1.10;;;;;;;;;;5039843;28;20553;-82
2023/03/05 04:25:38;;;;;;;4.13;1.67;;;;;;;;;;5019138;28;20133;-83
2023/03/05 04:28:06;;;;;;;2.42;0.85;;;;;;;;;;5039181;28;20041;-82
2023/03/05 04:30:34;;;;;;;5.03;1.02;;;;;;;;;;5038796;28;20041;-83
2023/03/05 04:33:06;;;;;;;2.30;0.88;;;;;;;;;;5034770;28;20457;-82
2023/03/05 04:35:34;;;;;;;6.90;1.35;;;;;;;;;;5051844;28;20037;-83
2023/03/05 04:38:02;;;;;;;4.10;0.80;;;;;;;;;;5046489;28;20139;-83
2023/03/05 04:40:35;;;;;;;4.60;0.80;;;;;;;;;;5040673;28;20599;-83
2023/03/05 04:43:03;;;;;;;5.13;1.08;;;;;;;;;;5021007;28;20059;-83
2023/03/05 04:45:31;;;;;;;4.32;0.98;;;;;;;;;;5039132;28;20045;-83
2023/03/05 04:48:05;;;;;;;1.92;1.00;;;;;;;;;;5053877;28;20045;-83
2023/03/05 04:50:32;;;;;;;2.30;0.88;;;;;;;;;;5054412;28;20056;-82
2023/03/05 04:53:01;;;;;;;4.38;1.02;;;;;;;;;;5036709;28;20610;-83
2023/03/05 04:55:34;;;;;;;3.15;1.05;;;;;;;;;;5038997;28;20029;-83
2023/03/05 04:58:27;;;;;;;2.72;1.00;;;;;;;;;;5051686;28;20060;-83
2023/03/05 05:01:18;;;;;;;4.55;1.30;;;;;;;;;;5053122;28;20477;-83
2023/03/05 05:03:51;;;;;;;4.72;1.55;;;;;;;;;;5054997;28;20041;-83
2023/03/05 05:06:18;;;;;;;7.25;1.48;;;;;;;;;;5039659;28;20046;-83
2023/03/05 05:08:46;;;;;;;4.55;1.83;;;;;;;;;;5041684;28;20535;-83
2023/03/05 05:11:14;;;;;;;4.75;1.80;;;;;;;;;;5024584;28;20066;-83
2023/03/05 05:13:42;;;;;;;5.38;2.28;;;;;;;;;;5026415;28;20033;-83
2023/03/05 05:16:10;;;;;;;7.00;2.05;;;;;;;;;;5040406;28;20078;-83
2023/03/05 05:19:04;;;;;;;6.40;2.30;;;;;;;;;;5041874;28;20503;-83
2023/03/05 05:21:37;;;;;;;5.15;2.20;;;;;;;;;;5054424;28;20048;-83
2023/03/05 05:24:05;;;;;;;8.98;2.40;;;;;;;;;;5057542;28;20099;-82
2023/03/05 05:26:32;;;;;;;8.05;2.90;;;;;;;;;;5054386;28;20106;-83
2023/03/05 05:29:04;;;;;;;5.07;2.20;;;;;;;;;;5045677;28;20065;-83
2023/03/05 05:31:32;;;;;;;6.25;2.28;;;;;;;;;;5034103;28;20049;-83
2023/03/05 05:34:00;;;;;;;7.20;2.08;;;;;;;;;;5043353;28;20106;-83
2023/03/05 05:36:33;;;;;;;7.47;2.30;;;;;;;;;;5028240;28;20601;-83
2023/03/05 05:39:00;;;;;;;5.28;2.13;;;;;;;;;;5061307;28;20046;-83
2023/03/05 05:41:28;;;;;;;6.82;2.17;;;;;;;;;;5027339;28;20071;-83
2023/03/05 05:44:00;;;;;;;3.28;1.33;;;;;;;;;;5045396;28;20750;-83
2023/03/05 05:46:28;;;;;;;6.07;1.50;;;;;;;;;;5060208;28;20034;-82
2023/03/05 05:48:56;;;;;;;5.97;1.65;;;;;;;;;;5058594;28;20041;-83
2023/03/05 05:51:24;;;;;;;5.93;1.70;;;;;;;;;;5059414;28;20125;-83
2023/03/05 05:53:52;;;;;;;4.05;1.70;;;;;;;;;;5041831;28;20132;-83
2023/03/05 05:56:20;;;;;;;5.47;1.60;;;;;;;;;;5057701;28;20045;-83
2023/03/05 05:59:14;;;;;;;4.35;1.45;;;;;;;;;;5044352;28;20040;-83
2023/03/05 06:01:42;;;;;;;4.38;1.30;;;;;;;;;;5043915;28;20044;-83
2023/03/05 06:04:10;;;;;;;4.45;1.45;;;;;;;;;;5043168;28;20049;-83
2023/03/05 06:06:38;;;;;;;4.50;1.27;;;;;;;;;;5056631;28;20048;-83
2023/03/05 06:09:06;;;;;;;4.40;1.08;;;;;;;;;;5059611;28;20095;-83
2023/03/05 06:11:35;;;;;;;3.22;0.80;;;;;;;;;;5027101;28;20613;-83
2023/03/05 06:14:28;;;;;;;6.47;1.50;;;;;;;;;;5043486;28;20095;-83
2023/03/05 06:16:56;;;;;;;2.38;0.93;;;;;;;;;;5041055;28;20083;-83
2023/03/05 06:19:24;;;;;;;4.43;1.33;;;;;;;;;;5027563;28;20033;-83
2023/03/05 06:21:52;;;;;;;8.73;1.00;;;;;;;;;;5057107;28;20495;-83
2023/03/05 06:24:21;;;;;;;4.90;1.35;;;;;;;;;;5044214;28;20107;-83
2023/03/05 06:26:48;;;;;;;4.53;1.25;;;;;;;;;;5044522;28;20121;-83
2023/03/05 06:29:16;;;;;;;6.30;1.08;;;;;;;;;;5042956;28;20057;-83
2023/03/05 06:32:10;;;;;;;5.70;1.30;;;;;;;;;;5051734;28;20656;-82
2023/03/05 06:34:38;;;;;;;6.45;1.00;;;;;;;;;;5026476;28;20172;-83
2023/03/05 06:37:32;;;;;;;4.70;0.90;;;;;;;;;;5042959;28;20036;-83
2023/03/05 06:40:31;;;;;;;4.97;1.08;;;;;;;;;;5041062;28;20083;-83
2023/03/05 06:42:58;;;;;;;9.10;1.20;;;;;;;;;;5043126;28;20753;-83
2023/03/05 06:45:26;;;;;;;4.28;1.00;;;;;;;;;;5043780;28;20056;-83
2023/03/05 06:47:54;;;;;;;5.40;0.88;;;;;;;;;;5056860;28;20037;-83
2023/03/05 06:50:22;;;;;;;2.63;0.82;;;;;;;;;;5058813;28;20060;-82
2023/03/05 06:52:50;;;;;;;3.20;0.82;;;;;;;;;;5027000;28;20046;-83
2023/03/05 06:55:18;;;;;;;2.10;0.82;;;;;;;;;;5024559;28;20029;-83
2023/03/05 06:58:10;;;;;;;5.13;0.80;;;;;;;;;;5040538;28;20650;-83
2023/03/05 07:00:43;;;;;;;5.05;0.82;;;;;;;;;;5028563;28;20098;-83
2023/03/05 07:03:17;;;;;;;6.40;0.90;;;;;;;;;;5043634;28;20041;-83
2023/03/05 07:05:44;;;;;;;4.55;0.70;;;;;;;;;;5040627;28;20044;-83
2023/03/05 07:08:12;;;;;;;1.10;0.50;;;;;;;;;;5042892;28;20037;-83
2023/03/05 07:11:12;;;;;;;4.35;0.60;;;;;;;;;;5044871;28;20025;-83
2023/03/05 07:13:46;;;;;;;4.60;0.70;;;;;;;;;;5040207;28;20050;-83
2023/03/05 07:16:27;;;;;;;2.53;0.63;;;;;;;;;;5045624;28;20044;-83
2023/03/05 07:18:56;;;;;;;2.88;0.70;;;;;;;;;;5053265;28;20037;-83
2023/03/05 07:21:30;;;;;;;2.45;0.60;;;;;;;;;;5044090;28;20443;-83
2023/03/05 07:24:04;;;;;;;2.67;0.52;;;;;;;;;;5040970;28;20042;-83
2023/03/05 07:26:32;;;;;;;0.75;0.43;;;;;;;;;;5041447;28;20041;-83
2023/03/05 07:29:26;;;;;;;1.83;0.73;;;;;;;;;;5041636;28;20025;-83
2023/03/05 07:32:18;;;;;;;3.13;0.50;;;;;;;;;;5057043;28;20055;-83
2023/03/05 07:34:46;;;;;;;2.20;0.55;;;;;;;;;;5038552;28;20045;-83
2023/03/05 07:37:14;;;;;;;3.75;0.70;;;;;;;;;;5042190;28;20057;-83
2023/03/05 07:39:42;;;;;;;3.20;0.47;;;;;;;;;;5054317;28;20083;-83
2023/03/05 07:42:18;;;;;;;3.72;0.80;;;;;;;;;;5038509;28;20036;-83
2023/03/05 07:44:52;;;;;;;4.05;0.70;;;;;;;;;;5040006;28;20041;-83
2023/03/05 07:47:24;;;;;;;2.25;1.20;;;;;;;;;;5026010;28;20562;-83
2023/03/05 07:52:51;;;;;;;5.55;0.80;;;;;;;;;;5038170;28;20443;-82
2023/03/05 07:55:18;;;;;;;3.05;0.70;;;;;;;;;;5039636;28;20065;-82
2023/03/05 07:57:46;;;;;;;1.20;0.65;;;;;;;;;;5042399;28;20402;-82
2023/03/05 08:00:14;;;;;;;6.63;1.23;;;;;;;;;;5054570;28;20065;-82
2023/03/05 08:02:42;;;;;;;4.47;0.70;;;;;;;;;;5056838;28;20049;-83
2023/03/05 08:05:14;;;;;;;3.03;1.15;;;;;;;;;;5023726;28;20506;-82
2023/03/05 08:08:09;;;;;;;1.15;0.50;;;;;;;;;;5042070;28;20044;-83
2023/03/05 08:10:37;;;;;;;3.72;0.80;;;;;;;;;;5038482;28;20128;-83
2023/03/05 08:13:05;;;;;;;5.72;0.65;;;;;;;;;;5056404;28;20064;-83
2023/03/05 08:15:32;;;;;;;3.97;0.65;;;;;;;;;;5011484;28;20465;-82
2023/03/05 08:18:00;;;;;;;6.60;0.73;;;;;;;;;;5023629;28;20042;-82
2023/03/05 08:20:28;;;;;;;5.63;1.38;;;;;;;;;;5040246;28;20072;-82
2023/03/05 08:23:02;;;;;;;1.88;0.77;;;;;;;;;;5040071;28;20422;-83
2023/03/05 08:25:30;;;;;;;3.90;0.98;;;;;;;;;;5024162;28;20091;-83
2023/03/05 08:27:59;;;;;;;3.75;0.73;;;;;;;;;;5055828;28;20124;-83
2023/03/05 08:30:26;;;;;;;3.17;1.10;;;;;;;;;;5024601;28;20040;-83
2023/03/05 08:32:55;;;;;;;1.75;0.65;;;;;;;;;;5040038;28;20044;-83
2023/03/05 08:35:24;;;;;;;2.88;0.65;;;;;;;;;;5039670;28;20056;-82
2023/03/05 08:37:56;;;;;;;6.97;0.90;;;;;;;;;;5040447;28;20384;-83
2023/03/05 08:40:24;;;;;;;3.97;0.85;;;;;;;;;;5023896;28;20047;-83
2023/03/05 08:42:52;;;;;;;1.15;0.52;;;;;;;;;;5030608;28;20118;-83
2023/03/05 08:45:52;;;;;;;3.72;0.70;;;;;;;;;;5038897;28;20495;-83
2023/03/05 08:48:20;;;;;;;3.78;0.80;;;;;;;;;;5037757;28;20094;-83
2023/03/05 08:50:52;;;;;;;5.38;0.90;;;;;;;;;;5051390;28;20423;-83
2023/03/05 08:53:20;;;;;;;6.47;1.17;;;;;;;;;;5035203;28;20136;-83
2023/03/05 08:55:56;;;;;;;2.22;0.80;;;;;;;;;;5035627;28;20040;-82
2023/03/05 08:58:25;;;;;;;4.40;2.15;;;;;;;;;;5028490;28;20037;-83
2023/03/05 09:00:52;;;;;;;1.10;0.57;;;;;;;;;;5038847;28;20132;-83
2023/03/05 09:03:20;;;;;;;4.97;0.82;;;;;;;;;;5039974;28;20061;-83
2023/03/05 09:06:02;;;;;;;6.72;0.82;;;;;;;;;;5040075;28;20052;-83
2023/03/05 09:08:30;;;;;;;1.70;0.52;;;;;;;;;;5038948;28;20048;-83
2023/03/05 09:11:02;;;;;;;1.98;0.50;;;;;;;;;;5023900;28;20041;-83
2023/03/05 09:13:31;;;;;;;3.97;0.73;;;;;;;;;;5037554;28;20060;-83
2023/03/05 09:16:03;;;;;;;3.10;0.85;;;;;;;;;;5022942;28;20084;-83
2023/03/05 09:18:35;;;;;;;4.43;0.98;;;;;;;;;;5053347;28;20116;-84
2023/03/05 09:21:07;;;;;;;4.18;0.93;;;;;;;;;;5021073;28;20049;-83
2023/03/05 09:23:34;;;;;;;4.30;1.48;;;;;;;;;;5035066;28;20099;-83
2023/03/05 09:26:35;;;;;;;3.75;0.77;;;;;;;;;;5040163;28;20064;-83
2023/03/05 09:29:03;;;;;;;5.40;1.20;;;;;;;;;;5049707;28;20033;-84
2023/03/05 09:31:30;;;;;;;1.85;0.80;;;;;;;;;;5022865;28;20056;-84
2023/03/05 09:33:58;;;;;;;2.47;1.10;;;;;;;;;;5017612;28;20526;-83
2023/03/05 09:36:50;;;;;;;5.45;1.00;;;;;;;;;;5033468;28;20034;-84
2023/03/05 09:39:18;;;;;;;2.90;0.93;;;;;;;;;;5032532;28;20494;-84
2023/03/05 09:41:53;;;;;;;2.13;0.85;;;;;;;;;;5024264;28;20103;-84
2023/03/05 09:45:38;;;;;;;0.85;0.50;;;;;;;;;;5045412;28;20071;-83
2023/03/05 09:48:24;;;;;;;5.22;0.60;;;;;;;;;;4980982;28;20061;-83
2023/03/05 09:51:03;;;;;;;2.22;0.82;;;;;;;;;;4992837;28;20141;-83
2023/03/05 09:53:45;;;;;;;3.38;0.93;;;;;;;;;;4992160;28;20070;-83
2023/03/05 09:56:15;;;;;;;3.67;1.00;;;;;;;;;;4984008;28;20228;-83
2023/03/05 09:58:47;;;;;;;2.88;1.00;;;;;;;;;;4993899;28;20076;-84
2023/03/05 10:01:41;;;;;;;2.33;0.90;;;;;;;;;;4975224;28;20051;-84
2023/03/05 10:04:25;;;;;;;6.03;0.73;;;;;;;;;;4989704;28;20054;-82
2023/03/05 10:07:10;;;;;;;2.88;0.82;;;;;;;;;;4992338;28;20088;-83
2023/03/05 10:09:56;;;;;;;1.95;0.57;;;;;;;;;;4992296;28;20046;-83
2023/03/05 10:12:44;;;;;;;3.97;0.70;;;;;;;;;;4985004;28;20039;-84
2023/03/05 10:15:31;;;;;;;5.45;0.95;;;;;;;;;;4993521;28;20508;-83
2023/03/05 10:18:20;;;;;;;2.13;0.70;;;;;;;;;;4948394;28;20523;-82
2023/03/05 10:21:12;;;;;;;2.90;0.70;;;;;;;;;;4997315;28;20054;-82
2023/03/05 10:24:49;;;;;;;5.25;0.80;;;;;;;;;;5028280;28;20037;-89
2023/03/05 10:27:24;;;;;;;4.38;0.80;;;;;;;;;;5031841;28;20037;-80
2023/03/05 10:29:58;;;;;;;5.07;0.70;;;;;;;;;;5056223;28;20053;-80
2023/03/05 10:33:02;;;;;;;1.92;0.60;;;;;;;;;;5039500;28;20040;-80
2023/03/05 10:36:11;;;;;;;2.40;0.40;;;;;;;;;;5045126;28;20060;-80
2023/03/05 10:39:06;;;;;;;4.95;0.98;;;;;;;;;;5040525;28;20045;-80
2023/03/05 10:42:19;;;;;;;1.95;0.40;;;;;;;;;;5041356;28;20084;-80
2023/03/05 10:44:51;;;;;;;3.35;0.75;;;;;;;;;;4995667;28;20057;-81
2023/03/05 10:47:27;;;;;;;2.95;0.60;;;;;;;;;;4966201;28;20069;-79
2023/03/05 10:49:56;;;;;;;1.85;0.70;;;;;;;;;;4995541;28;20535;-79
2023/03/05 10:52:36;;;;;;;4.78;1.17;;;;;;;;;;4992949;28;20042;-80
2023/03/05 10:55:15;;;;;;;8.00;1.17;;;;;;;;;;4978176;28;20058;-80
2023/03/05 10:57:48;;;;;;;6.30;0.70;;;;;;;;;;4995564;28;20081;-80
2023/03/05 11:00:29;;;;;;;2.88;0.80;;;;;;;;;;4980606;28;20480;-80
2023/03/05 11:03:00;;;;;;;7.15;0.60;;;;;;;;;;4997017;28;20053;-80
2023/03/05 11:05:45;;;;;;;4.32;0.90;;;;;;;;;;4983689;28;20456;-80
2023/03/05 11:08:24;;;;;;;4.57;1.00;;;;;;;;;;4994217;28;20058;-80
2023/03/05 11:11:15;;;;;;;4.18;0.70;;;;;;;;;;4996666;28;20551;-80
2023/03/05 11:13:56;;;;;;;6.13;0.68;;;;;;;;;;4996010;28;20081;-80
2023/03/05 11:16:33;;;;;;;2.28;0.95;;;;;;;;;;4997174;28;20132;-80
2023/03/05 11:19:36;;;;;;;2.03;0.52;;;;;;;;;;4988231;28;20057;-80
2023/03/05 11:22:14;;;;;;;2.15;0.63;;;;;;;;;;4960020;28;20066;-80
2023/03/05 11:25:09;;;;;;;5.25;0.63;;;;;;;;;;4958002;28;20043;-80
2023/03/05 11:27:42;;;;;;;2.60;0.57;;;;;;;;;;4960105;28;20035;-80
2023/03/05 11:30:33;;;;;;;5.90;0.90;;;;;;;;;;4959753;28;20054;-80
2023/03/05 11:33:14;;;;;;;5.18;0.80;;;;;;;;;;4957847;28;20046;-80
2023/03/05 11:35:43;;;;;;;2.45;1.00;;;;;;;;;;4953773;28;20062;-80
2023/03/05 11:38:25;;;;;;;3.50;1.27;;;;;;;;;;4963688;28;20562;-80
2023/03/05 11:40:55;;;;;;;5.97;2.75;;;;;;;;;;4975211;28;20425;-80
2023/03/05 11:43:30;;;;;;;3.38;2.08;;;;;;;;;;4959492;28;20074;-80
2023/03/05 11:46:02;;;;;;;4.50;1.38;;;;;;;;;;4957931;28;20050;-80
2023/03/05 11:48:38;;;;;;;1.67;0.90;;;;;;;;;;4957372;28;20042;-80
2023/03/05 11:51:35;;;;;;;4.38;1.10;;;;;;;;;;4976834;28;20585;-80
2023/03/05 11:54:07;;;;;;;2.13;1.13;;;;;;;;;;4959382;28;20054;-80
2023/03/05 11:57:02;;;;;;;0.88;0.60;;;;;;;;;;5044229;28;20404;-81
2023/03/05 11:59:38;;;;;;;6.20;3.10;;;;;;;;;;5026892;28;20561;-82
2023/03/05 12:02:32;;;;;;;4.78;1.75;;;;;;;;;;5042496;28;20073;-82
2023/03/05 12:05:02;;;;;;;3.20;1.02;;;;;;;;;;5038776;28;20047;-83
2023/03/05 12:08:01;;;;;;;2.70;1.00;;;;;;;;;;5043698;28;20111;-83
2023/03/05 12:10:30;;;;;;;4.03;1.20;;;;;;;;;;5021704;28;20116;-83
2023/03/05 12:13:33;;;;;;;3.22;0.85;;;;;;;;;;5051117;28;20044;-81
2023/03/05 12:16:33;;;;;;;3.65;1.20;;;;;;;;;;5050704;28;20060;-82
2023/03/05 12:19:31;;;;;;;3.97;1.48;;;;;;;;;;5038806;28;20288;-82
2023/03/05 12:22:15;;;;;;;3.60;1.50;;;;;;;;;;5040341;28;20096;-81
2023/03/05 12:25:27;;;;;;;3.25;1.42;;;;;;;;;;5032769;28;20104;-81
2023/03/05 12:28:01;;;;;;;6.47;1.65;;;;;;;;;;5038066;28;20495;-81
2023/03/05 12:30:34;;;;;;;3.28;1.55;;;;;;;;;;5038397;28;20037;-81
2023/03/05 12:33:06;;;;;;;4.53;1.40;;;;;;;;;;5050975;28;20142;-81
2023/03/05 12:35:39;;;;;;;3.53;1.50;;;;;;;;;;5035531;28;20132;-81
2023/03/05 12:38:28;;;;;;;3.03;1.38;;;;;;;;;;5039919;28;20487;-81
2023/03/05 12:41:21;;;;;;;4.93;1.40;;;;;;;;;;5050136;28;20636;-82
2023/03/05 12:44:03;;;;;;;2.85;1.40;;;;;;;;;;5036857;28;20033;-81
2023/03/05 12:46:34;;;;;;;3.38;1.17;;;;;;;;;;5041148;28;20052;-80
2023/03/05 12:49:18;;;;;;;2.67;0.95;;;;;;;;;;5051869;28;20415;-80
2023/03/05 12:51:58;;;;;;;4.43;1.30;;;;;;;;;;5054718;28;20098;-80
2023/03/05 12:54:38;;;;;;;4.55;1.15;;;;;;;;;;5041068;28;20491;-80
2023/03/05 12:57:22;;;;;;;4.18;1.15;;;;;;;;;;5041307;28;20116;-80
2023/03/05 13:00:08;;;;;;;4.18;1.75;;;;;;;;;;5039801;28;20045;-80
2023/03/05 13:02:41;;;;;;;6.80;2.55;;;;;;;;;;5041770;28;20033;-80
2023/03/05 13:05:26;;;;;;;3.70;1.45;;;;;;;;;;5038383;28;20041;-80
2023/03/05 13:08:21;;;;;;;2.58;1.00;;;;;;;;;;5040998;28;20580;-80
2023/03/05 13:14:30;;;;;;;15.60;6.95;;;;;;;;;;5035929;28;20495;-80
2023/03/05 13:16:59;;;;;;;6.50;2.70;;;;;;;;;;5040187;28;20084;-80
2023/03/05 13:19:28;;;;;;;9.50;4.57;;;;;;;;;;5040567;28;20037;-80
2023/03/05 13:22:02;;;;;;;3.00;1.45;;;;;;;;;;5038737;28;20045;-81
2023/03/05 13:24:30;;;;;;;2.17;1.27;;;;;;;;;;5039817;28;20450;-81
2023/03/05 13:26:58;;;;;;;2.03;0.75;;;;;;;;;;5038475;28;20037;-82
2023/03/05 13:29:27;;;;;;;2.63;0.93;;;;;;;;;;5054984;28;20033;-82
2023/03/05 13:32:17;;;;;;;2.72;1.00;;;;;;;;;;5051861;28;20044;-81
2023/03/05 13:34:46;;;;;;;1.50;0.80;;;;;;;;;;5039238;28;20046;-82
2023/03/05 13:37:19;;;;;;;1.42;1.13;;;;;;;;;;5037531;28;20479;-81
2023/03/05 13:39:50;;;;;;;1.95;0.80;;;;;;;;;;5040636;28;20061;-81
2023/03/05 13:42:23;;;;;;;3.03;0.60;;;;;;;;;;5051564;28;20053;-81
2023/03/05 13:45:03;;;;;;;2.17;0.70;;;;;;;;;;5021786;28;20419;-82
2023/03/05 13:47:36;;;;;;;3.17;0.70;;;;;;;;;;5053218;28;20053;-81
2023/03/05 13:50:21;;;;;;;2.03;0.60;;;;;;;;;;5040139;28;20094;-82
2023/03/05 13:52:48;;;;;;;2.08;0.63;;;;;;;;;;5044383;28;20503;-82
2023/03/05 13:55:17;;;;;;;5.18;1.10;;;;;;;;;;5045957;28;20033;-82
2023/03/05 13:57:50;;;;;;;2.55;0.98;;;;;;;;;;5042056;28;20037;-82
2023/03/05 14:00:37;;;;;;;4.85;1.00;;;;;;;;;;5044616;28;20051;-82
2023/03/05 14:03:21;;;;;;;7.10;1.27;;;;;;;;;;5037314;28;20093;-82
2023/03/05 14:05:48;;;;;;;5.32;1.02;;;;;;;;;;5040464;28;20110;-82
2023/03/05 14:08:24;;;;;;;4.38;0.73;;;;;;;;;;5044266;28;20079;-82
2023/03/05 14:11:11;;;;;;;2.95;1.20;;;;;;;;;;5021819;28;20695;-82
2023/03/05 14:13:46;;;;;;;1.73;0.80;;;;;;;;;;5026537;28;20044;-82
2023/03/05 14:16:24;;;;;;;5.20;0.90;;;;;;;;;;5042799;28;20138;-82
2023/03/05 14:19:03;;;;;;;3.70;1.00;;;;;;;;;;5027292;28;20045;-82
2023/03/05 14:21:56;;;;;;;2.55;0.80;;;;;;;;;;5057557;28;20037;-83
2023/03/05 14:24:27;;;;;;;5.45;0.65;;;;;;;;;;5042934;28;20044;-80
2023/03/05 14:27:21;;;;;;;1.83;0.60;;;;;;;;;;5041627;28;20041;-80
2023/03/05 14:29:48;;;;;;;0.98;0.60;;;;;;;;;;5027016;28;20042;-81
2023/03/05 14:32:29;;;;;;;2.50;0.60;;;;;;;;;;5034519;28;20510;-81
2023/03/05 14:34:58;;;;;;;2.72;0.55;;;;;;;;;;5044022;28;20639;-81
2023/03/05 14:37:38;;;;;;;1.63;0.43;;;;;;;;;;5025092;28;20528;-81
2023/03/05 14:40:31;;;;;;;5.78;0.70;;;;;;;;;;5059692;28;20128;-81
2023/03/05 14:43:03;;;;;;;1.42;0.68;;;;;;;;;;5025520;28;20048;-81
2023/03/05 14:45:54;;;;;;;3.40;0.80;;;;;;;;;;5043401;28;20474;-81
2023/03/05 14:48:22;;;;;;;2.95;0.70;;;;;;;;;;5022268;28;20033;-81
2023/03/05 14:50:55;;;;;;;2.50;0.70;;;;;;;;;;5041752;28;20099;-81
2023/03/05 14:53:30;;;;;;;1.85;0.50;;;;;;;;;;5042170;28;20041;-81
2023/03/05 14:55:58;;;;;;;2.97;0.70;;;;;;;;;;5057493;28;20034;-81
2023/03/05 14:58:34;;;;;;;5.80;0.77;;;;;;;;;;5059298;28;20552;-81
2023/03/05 15:01:02;;;;;;;3.67;0.70;;;;;;;;;;5040241;28;20045;-81
2023/03/05 15:03:31;;;;;;;1.10;0.50;;;;;;;;;;5044248;28;20049;-81
2023/03/05 15:06:04;;;;;;;2.45;1.02;;;;;;;;;;5041810;28;20136;-81
2023/03/05 15:08:56;;;;;;;4.25;0.70;;;;;;;;;;5042598;28;20025;-81
2023/03/05 15:11:29;;;;;;;3.90;0.60;;;;;;;;;;5055261;28;20034;-81
2023/03/05 15:13:56;;;;;;;3.47;0.90;;;;;;;;;;5042302;28;20045;-81
2023/03/05 15:16:24;;;;;;;2.58;0.70;;;;;;;;;;5041393;28;20056;-81
2023/03/05 15:18:52;;;;;;;2.60;1.02;;;;;;;;;;5025060;28;20132;-81
2023/03/05 15:21:29;;;;;;;4.00;1.02;;;;;;;;;;5058411;28;20106;-81
2023/03/05 15:24:01;;;;;;;1.20;0.45;;;;;;;;;;5042317;28;20052;-81
2023/03/05 15:26:28;;;;;;;2.67;0.75;;;;;;;;;;5024238;28;20037;-81
2023/03/05 15:28:56;;;;;;;3.58;0.85;;;;;;;;;;5057137;28;20061;-80
2023/03/05 15:31:29;;;;;;;5.45;1.00;;;;;;;;;;5042177;28;20041;-81
2023/03/05 15:33:56;;;;;;;2.25;0.60;;;;;;;;;;5053901;28;20128;-81
2023/03/05 15:36:24;;;;;;;2.33;0.70;;;;;;;;;;5024277;28;20495;-81
2023/03/05 15:38:52;;;;;;;2.47;0.75;;;;;;;;;;5024358;28;20030;-80
2023/03/05 15:41:21;;;;;;;3.42;0.90;;;;;;;;;;5056737;28;20034;-81